createdAt,value
2023-03-30T00:04:34.788Z,4.55
2023-03-30T00:09:33.689Z,5.25
2023-03-30T00:14:32.510Z,6.75
2023-03-30T00:19:32.802Z,6.60
2023-03-30T00:24:31.530Z,8.47
2023-03-30T00:29:30.262Z,6.27
2023-03-30T00:34:29.096Z,6.53
2023-03-30T00:39:29.304Z,6.63
2023-03-30T00:45:13.587Z,7.10
2023-03-30T00:50:13.825Z,7.35
2023-03-30T00:55:14.952Z,6.93
2023-03-30T01:00:15.078Z,8.93
2023-03-30T01:05:14.261Z,8.53
2023-03-30T01:10:14.728Z,10.65
2023-03-30T01:15:16.283Z,7.80
2023-03-30T01:20:47.589Z,7.88
2023-03-30T01:26:24.705Z,8.13
2023-03-30T01:31:50.232Z,9.20
2023-03-30T01:37:19.517Z,12.33
2023-03-30T01:42:23.809Z,9.87
2023-03-30T01:47:29.544Z,7.80
2023-03-30T01:52:37.096Z,7.73
2023-03-30T01:57:45.553Z,11.23
2023-03-30T02:02:49.669Z,11.40
2023-03-30T02:07:53.860Z,11.03
2023-03-30T02:12:57.171Z,9.40
2023-03-30T02:17:55.959Z,11.65
2023-03-30T02:22:55.459Z,10.73
2023-03-30T02:27:55.658Z,14.67
2023-03-30T02:32:57.092Z,13.20
2023-03-30T02:38:15.026Z,12.80
2023-03-30T02:43:35.152Z,11.53
2023-03-30T02:48:42.851Z,12.20
2023-03-30T02:53:47.249Z,12.73
2023-03-30T02:59:05.311Z,12.10
2023-03-30T03:04:06.344Z,15.40
2023-03-30T03:09:25.143Z,11.10
2023-03-30T03:14:26.641Z,11.67
2023-03-30T03:19:26.126Z,14.97
2023-03-30T03:24:25.455Z,11.67
2023-03-30T03:29:54.645Z,16.57
2023-03-30T03:34:53.827Z,16.50
2023-03-30T03:39:52.785Z,21.27
2023-03-30T03:44:51.932Z,15.43
2023-03-30T03:49:52.713Z,20.90
2023-03-30T03:54:51.743Z,25.20
2023-03-30T03:59:51.295Z,18.97
2023-03-30T04:04:50.402Z,23.23
2023-03-30T04:09:50.623Z,14.93
2023-03-30T04:15:11.800Z,18.83
2023-03-30T04:20:34.131Z,27.63
2023-03-30T04:25:48.232Z,27.70
2023-03-30T04:31:13.118Z,46.90
2023-03-30T04:36:31.122Z,66.30
2023-03-30T04:41:52.384Z,41.27
2023-03-30T04:47:17.431Z,51.67
2023-03-30T04:52:37.651Z,37.37
2023-03-30T04:57:49.619Z,30.83
2023-03-30T05:03:11.573Z,38.97
2023-03-30T05:08:29.772Z,30.40
2023-03-30T05:13:48.626Z,39.80
2023-03-30T05:19:02.498Z,26.63
2023-03-30T05:24:36.413Z,30.07
2023-03-30T05:29:56.608Z,29.43
2023-03-30T05:35:12.143Z,29.00
2023-03-30T05:40:29.769Z,18.10
2023-03-30T05:45:44.262Z,23.63
2023-03-30T05:51:02.565Z,26.83
2023-03-30T05:56:17.898Z,25.20
2023-03-30T06:01:28.609Z,16.80
2023-03-30T06:06:29.822Z,19.80
2023-03-30T06:11:29.000Z,16.70
2023-03-30T06:16:41.127Z,16.20
2023-03-30T06:21:42.975Z,17.77
2023-03-30T06:27:03.567Z,17.10
2023-03-30T06:32:05.006Z,17.10
2023-03-30T06:37:22.585Z,13.73
2023-03-30T06:42:22.674Z,11.80
2023-03-30T06:47:35.966Z,11.53
2023-03-30T06:52:36.399Z,13.07
2023-03-30T06:57:36.141Z,9.10
2023-03-30T07:02:36.857Z,13.30
2023-03-30T07:07:46.708Z,11.53
2023-03-30T07:12:45.722Z,12.15
2023-03-30T07:17:53.632Z,11.32
2023-03-30T07:22:53.150Z,10.95
2023-03-30T07:27:52.155Z,14.13
2023-03-30T07:32:53.185Z,12.57
2023-03-30T07:38:02.939Z,10.75
2023-03-30T07:43:07.008Z,15.75
2023-03-30T07:48:07.894Z,11.32
2023-03-30T07:53:07.463Z,12.43
2023-03-30T07:58:07.910Z,11.10
2023-03-30T08:03:08.600Z,12.85
2023-03-30T08:08:08.009Z,13.40
2023-03-30T08:13:08.072Z,12.35
2023-03-30T08:18:08.900Z,10.70
2023-03-30T08:23:09.354Z,10.90
2023-03-30T08:28:09.117Z,8.82
2023-03-30T08:33:10.218Z,6.93
2023-03-30T08:38:10.035Z,9.68
2023-03-30T08:43:23.147Z,8.65
2023-03-30T08:48:26.238Z,7.90
2023-03-30T08:53:25.097Z,6.40
2023-03-30T08:58:34.491Z,21.83
2023-03-30T09:03:40.894Z,7.50
2023-03-30T09:08:40.451Z,8.88
2023-03-30T09:13:42.361Z,6.43
2023-03-30T09:18:44.761Z,10.10
2023-03-30T09:23:46.545Z,4.63
2023-03-30T09:28:55.198Z,5.63
2023-03-30T09:34:03.632Z,10.30
2023-03-30T09:39:10.483Z,5.65
2023-03-30T09:44:20.605Z,10.13
2023-03-30T09:49:22.900Z,6.93
2023-03-30T09:54:25.105Z,6.25
2023-03-30T10:00:00.604Z,5.72
2023-03-30T10:05:05.619Z,5.78
2023-03-30T10:10:29.110Z,8.73
2023-03-30T10:15:46.541Z,8.98
2023-03-30T10:20:51.564Z,4.93
2023-03-30T10:25:52.301Z,6.03
2023-03-30T10:30:54.949Z,7.53
2023-03-30T10:36:00.750Z,6.75
2023-03-30T10:41:10.878Z,4.95
2023-03-30T10:46:20.202Z,7.45
2023-03-30T10:51:32.874Z,7.65
2023-03-30T10:56:36.408Z,4.88
2023-03-30T11:02:33.589Z,4.43
2023-03-30T11:08:36.076Z,18.17
2023-03-30T11:14:06.216Z,13.50
2023-03-30T11:19:11.492Z,16.10
2023-03-30T11:24:17.395Z,10.23
2023-03-30T11:29:29.299Z,15.75
2023-03-30T11:34:43.921Z,7.95
2023-03-30T11:40:13.773Z,5.20
2023-03-30T11:45:21.690Z,6.72
2023-03-30T11:50:32.318Z,4.97
2023-03-30T11:55:52.309Z,4.65
2023-03-30T12:07:56.687Z,7.93
2023-03-30T12:12:57.997Z,8.07
2023-03-30T12:18:04.826Z,12.20
2023-03-30T12:23:15.153Z,7.72
2023-03-30T12:28:17.583Z,5.03
2023-03-30T12:33:27.746Z,6.47
2023-03-30T12:38:30.179Z,8.07
2023-03-30T12:43:40.611Z,8.05
2023-03-30T12:48:50.413Z,3.40
2023-03-30T12:54:23.315Z,10.55
2023-03-30T12:59:57.088Z,8.85
2023-03-30T13:04:56.908Z,5.78
2023-03-30T13:09:59.820Z,3.92
2023-03-30T13:15:07.287Z,4.57
2023-03-30T13:20:29.961Z,6.75
2023-03-30T13:25:42.013Z,9.43
2023-03-30T13:30:50.400Z,3.42
2023-03-30T13:35:59.092Z,5.10
2023-03-30T13:41:10.861Z,6.72
2023-03-30T13:46:19.845Z,3.42
2023-03-30T13:51:22.209Z,4.85
2023-03-30T13:56:22.758Z,4.68
2023-03-30T14:01:25.778Z,4.70
2023-03-30T14:06:26.890Z,4.13
2023-03-30T14:11:34.645Z,5.90
2023-03-30T14:16:38.653Z,5.35
2023-03-30T14:21:47.501Z,3.92
2023-03-30T14:26:49.179Z,7.50
2023-03-30T14:32:06.597Z,4.07
2023-03-30T14:37:09.752Z,5.80
2023-03-30T14:42:16.361Z,5.70
2023-03-30T14:47:22.747Z,3.38
2023-03-30T14:52:24.072Z,2.72
2023-03-30T14:57:26.739Z,5.90
2023-03-30T15:02:30.136Z,4.57
2023-03-30T15:07:32.666Z,5.90
2023-03-30T15:12:35.652Z,9.77
2023-03-30T15:17:39.060Z,8.07
2023-03-30T15:22:40.243Z,8.48
2023-03-30T15:27:41.172Z,19.40
2023-03-30T15:32:42.372Z,8.10
2023-03-30T15:37:54.935Z,4.80
2023-03-30T15:43:12.985Z,5.80
2023-03-30T15:48:13.749Z,10.07
2023-03-30T15:53:19.412Z,6.53
2023-03-30T15:58:35.764Z,3.17
2023-03-30T16:03:41.611Z,4.32
2023-03-30T16:08:43.635Z,4.13
2023-03-30T16:13:45.770Z,8.23
2023-03-30T16:18:46.762Z,8.95
2023-03-30T16:23:49.328Z,9.10
2023-03-30T16:28:52.576Z,20.98
2023-03-30T16:33:54.673Z,35.40
2023-03-30T16:38:54.150Z,32.63
2023-03-30T16:43:53.361Z,34.33
2023-03-30T16:48:54.790Z,28.33
2023-03-30T16:53:53.819Z,28.73
2023-03-30T16:58:52.868Z,27.80
2023-03-30T17:04:09.790Z,36.08
2023-03-30T17:09:13.959Z,35.45
2023-03-30T17:14:13.310Z,46.25
2023-03-30T17:19:16.031Z,37.83
2023-03-30T17:24:50.277Z,56.83
2023-03-30T17:29:53.376Z,59.08
2023-03-30T17:39:54.649Z,38.15
2023-03-30T17:45:02.670Z,40.70
2023-03-30T17:50:04.239Z,41.58
2023-03-30T17:55:03.709Z,42.33
2023-03-30T18:00:06.279Z,48.30
2023-03-30T18:05:10.123Z,49.60
2023-03-30T18:10:21.916Z,58.22
2023-03-30T18:15:25.565Z,54.83
2023-03-30T18:20:32.598Z,55.72
2023-03-30T18:25:32.983Z,59.95
2023-03-30T18:30:33.641Z,48.15
2023-03-30T18:35:35.835Z,76.70
2023-03-30T18:40:37.828Z,62.87
2023-03-30T18:45:38.897Z,63.85
2023-03-30T18:50:41.351Z,79.60
2023-03-30T18:55:42.358Z,106.05
2023-03-30T19:00:41.615Z,72.97
2023-03-30T19:05:43.334Z,73.88
2023-03-30T19:10:44.541Z,63.45
2023-03-30T19:15:45.275Z,64.43
2023-03-30T19:20:46.519Z,81.88
2023-03-30T19:25:46.479Z,109.78
2023-03-30T19:30:46.347Z,167.02
2023-03-30T19:35:47.221Z,258.95
2023-03-30T19:40:46.590Z,138.05
2023-03-30T19:45:45.526Z,146.00
2023-03-30T19:50:44.626Z,114.07
2023-03-30T19:55:46.190Z,78.28
2023-03-30T20:01:15.463Z,91.70
2023-03-30T20:06:12.949Z,53.88
2023-03-30T20:11:13.711Z,55.92
2023-03-30T20:16:14.356Z,50.47
2023-03-30T20:21:15.952Z,52.58
2023-03-30T20:26:19.367Z,54.95
2023-03-30T20:31:18.506Z,32.35
2023-03-30T20:36:17.481Z,30.75
2023-03-30T20:41:21.873Z,20.60
2023-03-30T20:46:22.761Z,14.35
2023-03-30T20:51:24.028Z,12.73
2023-03-30T20:56:28.027Z,12.15
2023-03-30T21:01:29.694Z,15.68
2023-03-30T21:06:30.634Z,14.30
2023-03-30T21:11:33.638Z,11.52
2023-03-30T21:16:32.978Z,11.43
2023-03-30T21:21:33.906Z,8.57
2023-03-30T21:26:34.499Z,7.82
2023-03-30T21:31:33.488Z,10.85
2023-03-30T21:36:32.492Z,9.68
2023-03-30T21:41:33.259Z,15.57
2023-03-30T21:46:33.551Z,16.42
2023-03-30T21:51:32.679Z,11.27
2023-03-30T21:56:32.460Z,10.95
2023-03-30T22:01:31.548Z,15.88
2023-03-30T22:06:32.427Z,12.38
2023-03-30T22:11:31.486Z,14.45
2023-03-30T22:16:33.325Z,15.18
2023-03-30T22:21:35.653Z,9.80
2023-03-30T22:26:35.858Z,14.50
2023-03-30T22:31:34.752Z,13.30
2023-03-30T22:36:34.960Z,8.48
2023-03-30T22:41:33.743Z,10.40
2023-03-30T22:46:32.679Z,10.02
2023-03-30T22:51:34.070Z,12.63
2023-03-30T22:56:35.096Z,9.60
2023-03-30T23:01:35.296Z,10.02
2023-03-30T23:06:36.468Z,91.65
2023-03-30T23:11:53.782Z,137.63
2023-03-30T23:17:00.863Z,25.85
2023-03-30T23:21:59.814Z,17.45
2023-03-30T23:27:01.052Z,49.60
2023-03-30T23:32:00.025Z,27.73
2023-03-30T23:37:02.346Z,333.13
2023-03-30T23:42:05.036Z,41.40
2023-03-30T23:47:03.880Z,26.52
2023-03-30T23:52:02.608Z,26.75
2023-03-30T23:57:01.916Z,26.65
